createdAt,value
2022-10-19T00:02:58.285Z,1.75
2022-10-19T00:08:01.753Z,1.80
2022-10-19T00:13:03.554Z,2.27
2022-10-19T00:18:05.305Z,2.33
2022-10-19T00:23:07.161Z,1.80
2022-10-19T00:28:08.971Z,2.50
2022-10-19T00:33:10.762Z,2.20
2022-10-19T00:38:12.525Z,2.92
2022-10-19T00:43:23.335Z,2.53
2022-10-19T00:48:31.771Z,2.17
2022-10-19T00:53:33.756Z,2.10
2022-10-19T00:58:36.039Z,2.15
2022-10-19T01:03:38.343Z,3.70
2022-10-19T01:08:40.363Z,3.70
2022-10-19T01:13:46.694Z,2.75
2022-10-19T01:19:09.329Z,2.10
2022-10-19T01:24:23.560Z,2.58
2022-10-19T01:29:40.496Z,2.90
2022-10-19T01:34:52.799Z,2.80
2022-10-19T01:40:06.734Z,2.67
2022-10-19T01:45:21.181Z,3.45
2022-10-19T01:50:38.526Z,3.80
2022-10-19T01:55:43.376Z,3.35
2022-10-19T02:00:48.470Z,2.70
2022-10-19T02:05:51.952Z,4.60
2022-10-19T02:10:55.247Z,6.57
2022-10-19T02:16:01.326Z,2.70
2022-10-19T02:21:04.394Z,2.80
2022-10-19T02:26:06.723Z,2.65
2022-10-19T02:31:09.068Z,2.80
2022-10-19T02:36:10.942Z,2.85
2022-10-19T02:41:21.939Z,3.70
2022-10-19T02:46:30.823Z,4.25
2022-10-19T02:51:32.588Z,3.10
2022-10-19T02:56:35.652Z,2.85
2022-10-19T03:01:37.414Z,2.75
2022-10-19T03:06:39.162Z,3.20
2022-10-19T03:11:40.875Z,3.53
2022-10-19T03:16:42.601Z,3.88
2022-10-19T03:21:44.362Z,3.25
2022-10-19T03:26:46.112Z,3.35
2022-10-19T03:31:48.186Z,4.82
2022-10-19T03:36:50.057Z,4.90
2022-10-19T03:41:51.818Z,5.65
2022-10-19T03:46:53.570Z,5.32
2022-10-19T03:51:55.322Z,3.70
2022-10-19T03:56:57.051Z,3.65
2022-10-19T04:01:58.802Z,3.65
2022-10-19T04:07:01.732Z,4.78
2022-10-19T04:12:03.651Z,4.28
2022-10-19T04:17:05.475Z,3.63
2022-10-19T04:22:07.220Z,4.07
2022-10-19T04:27:09.304Z,4.10
2022-10-19T04:32:11.070Z,3.55
2022-10-19T04:37:12.822Z,3.40
2022-10-19T04:42:14.579Z,4.80
2022-10-19T04:47:16.347Z,5.53
2022-10-19T04:52:18.111Z,9.45
2022-10-19T04:57:19.846Z,8.40
2022-10-19T05:02:21.579Z,7.15
2022-10-19T05:07:23.433Z,6.45
2022-10-19T05:12:25.180Z,5.35
2022-10-19T05:17:31.480Z,5.35
2022-10-19T05:22:33.469Z,5.95
2022-10-19T05:27:35.464Z,6.63
2022-10-19T05:32:37.717Z,6.95
2022-10-19T05:37:39.519Z,7.38
2022-10-19T05:42:41.263Z,7.90
2022-10-19T05:47:43.015Z,8.25
2022-10-19T05:52:44.771Z,6.82
2022-10-19T05:57:46.510Z,8.50
2022-10-19T06:02:48.240Z,8.73
2022-10-19T06:07:49.996Z,8.95
2022-10-19T06:12:51.795Z,9.13
2022-10-19T06:17:53.541Z,7.68
2022-10-19T06:22:55.371Z,6.45
2022-10-19T06:27:57.514Z,7.18
2022-10-19T06:33:00.282Z,6.28
2022-10-19T06:38:02.155Z,5.35
2022-10-19T06:43:03.913Z,4.30
2022-10-19T06:48:07.730Z,5.28
2022-10-19T06:53:09.959Z,5.10
2022-10-19T06:58:11.671Z,5.25
2022-10-19T07:03:13.409Z,5.40
2022-10-19T07:08:15.208Z,4.88
2022-10-19T07:13:16.989Z,5.40
2022-10-19T07:18:18.794Z,9.15
2022-10-19T07:23:20.550Z,9.45
2022-10-19T07:28:22.358Z,6.90
2022-10-19T07:33:24.194Z,7.30
2022-10-19T07:38:25.979Z,5.82
2022-10-19T07:43:27.717Z,4.55
2022-10-19T07:48:29.986Z,4.38
2022-10-19T07:53:32.295Z,4.93
2022-10-19T07:58:35.097Z,4.63
2022-10-19T08:08:59.127Z,3.65
2022-10-19T08:14:03.105Z,3.95
2022-10-19T08:19:09.824Z,3.60
2022-10-19T08:24:14.043Z,3.70
2022-10-19T08:34:18.733Z,4.45
2022-10-19T08:39:20.494Z,5.10
2022-10-19T08:44:25.254Z,5.22
2022-10-19T08:49:30.139Z,5.47
2022-10-19T09:00:16.279Z,6.43
2022-10-19T09:10:38.818Z,6.07
2022-10-19T09:15:44.292Z,6.70
2022-10-19T09:21:17.089Z,7.00
2022-10-19T09:26:23.056Z,6.33
2022-10-19T09:31:45.145Z,6.30
2022-10-19T09:36:57.346Z,7.50
2022-10-19T09:42:19.665Z,7.72
2022-10-19T09:47:39.772Z,7.70
2022-10-19T09:52:43.214Z,7.40
2022-10-19T09:57:50.623Z,7.23
2022-10-19T10:02:54.627Z,7.65
2022-10-19T10:07:56.548Z,7.00
2022-10-19T10:13:00.274Z,7.93
2022-10-19T10:18:02.889Z,7.85
2022-10-19T10:23:06.475Z,7.25
2022-10-19T10:28:28.939Z,7.03
2022-10-19T10:33:50.423Z,7.20
2022-10-19T10:38:55.628Z,6.60
2022-10-19T10:44:08.902Z,6.85
2022-10-19T10:49:26.747Z,6.40
2022-10-19T10:54:33.538Z,6.45
2022-10-19T10:59:44.757Z,6.18
2022-10-19T11:04:52.577Z,5.50
2022-10-19T11:09:59.670Z,6.78
2022-10-19T11:15:04.438Z,6.22
2022-10-19T11:20:11.020Z,6.28
2022-10-19T11:25:41.454Z,6.70
2022-10-19T11:31:16.549Z,5.65
2022-10-19T11:36:47.164Z,6.15
2022-10-19T11:42:00.250Z,5.78
2022-10-19T11:47:10.614Z,5.68
2022-10-19T11:52:21.358Z,5.45
2022-10-19T11:57:31.172Z,5.20
2022-10-19T12:03:18.388Z,4.65
2022-10-19T12:08:46.415Z,4.00
2022-10-19T12:13:52.672Z,5.70
2022-10-19T12:19:00.374Z,4.75
2022-10-19T12:24:06.494Z,4.68
2022-10-19T12:29:16.199Z,5.18
2022-10-19T12:34:36.207Z,5.80
2022-10-19T12:40:08.534Z,4.88
2022-10-19T12:45:31.249Z,5.82
2022-10-19T12:50:48.201Z,4.68
2022-10-19T12:56:03.738Z,4.75
2022-10-19T13:01:07.359Z,4.60
2022-10-19T13:06:34.074Z,5.72
2022-10-19T13:11:38.245Z,4.85
2022-10-19T13:16:55.536Z,4.35
2022-10-19T13:22:20.273Z,4.30
2022-10-19T13:27:26.658Z,3.75
2022-10-19T13:32:45.733Z,4.35
2022-10-19T13:38:10.337Z,4.60
2022-10-19T13:43:34.334Z,3.50
2022-10-19T13:49:06.192Z,3.42
2022-10-19T13:54:24.154Z,4.00
2022-10-19T13:59:44.243Z,3.83
2022-10-19T14:05:27.673Z,3.42
2022-10-19T14:10:33.070Z,4.30
2022-10-19T14:15:55.075Z,4.63
2022-10-19T14:20:58.215Z,4.20
2022-10-19T14:26:05.171Z,5.00
2022-10-19T14:31:09.934Z,4.97
2022-10-19T14:36:18.665Z,3.60
2022-10-19T14:41:32.570Z,4.95
2022-10-19T14:46:34.743Z,3.33
2022-10-19T14:51:47.156Z,3.55
2022-10-19T14:56:53.845Z,3.78
2022-10-19T15:01:58.664Z,5.03
2022-10-19T15:07:04.904Z,4.03
2022-10-19T15:12:10.241Z,3.20
2022-10-19T15:17:23.336Z,6.47
2022-10-19T15:22:31.227Z,4.35
2022-10-19T15:27:38.506Z,4.80
2022-10-19T15:32:40.266Z,5.18
2022-10-19T15:37:44.622Z,4.95
2022-10-19T15:42:48.724Z,5.47
2022-10-19T15:53:12.247Z,5.38
2022-10-19T15:58:14.486Z,5.03
2022-10-19T16:03:17.276Z,5.90
2022-10-19T16:08:19.034Z,15.13
2022-10-19T16:13:20.799Z,5.93
2022-10-19T16:18:22.529Z,5.63
2022-10-19T16:23:24.586Z,5.50
2022-10-19T16:28:26.344Z,6.38
2022-10-19T16:33:28.516Z,8.73
2022-10-19T16:38:30.251Z,21.73
2022-10-19T16:43:32.028Z,12.63
2022-10-19T16:48:34.187Z,25.95
2022-10-19T16:53:37.413Z,7.75
2022-10-19T16:58:40.287Z,5.80
2022-10-19T17:03:46.335Z,5.45
2022-10-19T17:14:12.730Z,5.45
2022-10-19T17:24:21.697Z,4.63
2022-10-19T17:29:23.931Z,5.32
2022-10-19T17:34:25.737Z,4.65
2022-10-19T17:39:29.943Z,7.70
2022-10-19T17:44:32.048Z,5.63
2022-10-19T17:49:33.995Z,5.53
2022-10-19T17:54:43.637Z,5.57
2022-10-19T17:59:57.535Z,5.57
2022-10-19T18:04:59.287Z,5.72
2022-10-19T18:10:01.026Z,5.80
2022-10-19T18:15:02.914Z,4.60
2022-10-19T18:20:05.131Z,5.15
2022-10-19T18:25:07.316Z,4.93
2022-10-19T18:30:09.953Z,6.78
2022-10-19T18:35:11.871Z,5.32
2022-10-19T18:40:13.609Z,5.05
2022-10-19T18:45:16.795Z,5.30
2022-10-19T18:50:18.626Z,3.50
2022-10-19T18:55:20.418Z,4.07
2022-10-19T19:00:22.153Z,4.78
2022-10-19T19:05:24.124Z,3.75
2022-10-19T19:10:26.285Z,3.95
2022-10-19T19:15:28.027Z,3.78
2022-10-19T19:20:29.933Z,3.85
2022-10-19T19:25:31.719Z,3.63
2022-10-19T19:30:33.656Z,4.20
2022-10-19T19:35:41.523Z,3.78
2022-10-19T19:40:45.619Z,4.38
2022-10-19T19:45:57.095Z,3.85
2022-10-19T19:50:58.831Z,4.40
2022-10-19T19:56:00.589Z,4.25
2022-10-19T20:01:13.774Z,4.15
2022-10-19T20:06:20.736Z,4.20
2022-10-19T20:11:27.028Z,3.85
2022-10-19T20:16:31.984Z,3.95
2022-10-19T20:21:33.915Z,3.60
2022-10-19T20:26:35.833Z,4.00
2022-10-19T20:31:41.270Z,4.57
2022-10-19T20:36:43.256Z,6.10
2022-10-19T20:41:44.980Z,5.22
2022-10-19T20:46:49.082Z,4.18
2022-10-19T20:51:53.591Z,4.20
2022-10-19T21:01:57.805Z,4.75
2022-10-19T21:06:59.996Z,4.25
2022-10-19T21:12:01.772Z,4.68
2022-10-19T21:17:03.562Z,4.70
2022-10-19T21:22:06.242Z,4.63
2022-10-19T21:27:09.128Z,4.55
2022-10-19T21:32:11.060Z,4.93
2022-10-19T21:37:12.816Z,5.22
2022-10-19T21:42:14.599Z,5.30
2022-10-19T21:47:16.349Z,4.35
2022-10-19T21:52:18.103Z,4.22
2022-10-19T21:57:19.838Z,4.75
2022-10-19T22:02:21.578Z,4.50
2022-10-19T22:07:23.346Z,5.30
2022-10-19T22:12:25.111Z,4.47
2022-10-19T22:17:26.934Z,4.90
2022-10-19T22:22:28.710Z,4.43
2022-10-19T22:27:30.485Z,4.95
2022-10-19T22:32:32.237Z,4.63
2022-10-19T22:37:34.653Z,5.82
2022-10-19T22:42:36.757Z,5.57
2022-10-19T22:47:38.816Z,6.40
2022-10-19T22:52:40.585Z,5.90
2022-10-19T22:57:42.491Z,6.50
2022-10-19T23:02:44.375Z,6.03
2022-10-19T23:07:46.093Z,6.88
2022-10-19T23:12:52.615Z,6.70
2022-10-19T23:17:54.534Z,6.97
2022-10-19T23:22:56.300Z,6.00
2022-10-19T23:27:58.040Z,7.45
2022-10-19T23:32:59.743Z,8.05
2022-10-19T23:38:01.471Z,7.20
2022-10-19T23:43:03.240Z,8.15
2022-10-19T23:48:04.995Z,6.88
2022-10-19T23:53:06.762Z,7.55
2022-10-19T23:58:08.504Z,6.97
